createdAt,value
2018-09-03T00:02:21.853Z,17.84
2018-09-03T00:04:50.629Z,17.86
2018-09-03T00:07:20.009Z,17.83
2018-09-03T00:09:50.283Z,17.81
2018-09-03T00:12:19.379Z,17.81
2018-09-03T00:14:48.135Z,17.82
2018-09-03T00:17:17.544Z,17.82
2018-09-03T00:19:46.591Z,17.84
2018-09-03T00:22:15.654Z,17.82
2018-09-03T00:24:45.309Z,17.81
2018-09-03T00:27:14.437Z,17.82
2018-09-03T00:29:43.169Z,17.84
2018-09-03T00:32:17.019Z,17.84
2018-09-03T00:34:50.893Z,17.85
2018-09-03T00:38:23.199Z,17.88
2018-09-03T00:40:57.222Z,17.86
2018-09-03T00:43:31.180Z,17.87
2018-09-03T00:46:05.211Z,17.87
2018-09-03T00:48:34.591Z,17.85
2018-09-03T00:51:03.364Z,17.83
2018-09-03T00:53:32.345Z,17.79
2018-09-03T00:56:01.138Z,17.77
2018-09-03T00:58:30.194Z,17.76
2018-09-03T01:00:59.327Z,17.75
2018-09-03T01:03:28.102Z,17.72
2018-09-03T01:05:56.874Z,17.69
2018-09-03T01:08:25.890Z,17.66
2018-09-03T01:10:54.882Z,17.67
2018-09-03T01:13:23.641Z,17.66
2018-09-03T01:15:52.657Z,17.66
2018-09-03T01:18:21.402Z,17.64
2018-09-03T01:20:50.155Z,17.57
2018-09-03T01:23:18.993Z,17.53
2018-09-03T01:25:48.808Z,17.53
2018-09-03T01:28:17.886Z,17.52
2018-09-03T01:30:47.045Z,17.49
2018-09-03T01:33:16.115Z,17.48
2018-09-03T01:35:44.900Z,17.48
2018-09-03T01:38:14.097Z,17.49
2018-09-03T01:40:43.205Z,17.46
2018-09-03T01:43:12.221Z,17.39
2018-09-03T01:45:41.434Z,17.35
2018-09-03T01:48:11.493Z,17.31
2018-09-03T01:50:40.943Z,17.30
2018-09-03T01:53:09.987Z,17.30
2018-09-03T01:55:39.331Z,17.29
2018-09-03T01:58:08.429Z,17.26
2018-09-03T02:00:37.385Z,17.26
2018-09-03T02:03:06.183Z,17.25
2018-09-03T02:05:35.207Z,17.24
2018-09-03T02:08:04.392Z,17.26
2018-09-03T02:10:33.163Z,17.26
2018-09-03T02:13:02.281Z,17.25
2018-09-03T02:15:31.425Z,17.26
2018-09-03T02:18:00.402Z,17.27
2018-09-03T02:20:29.561Z,17.26
2018-09-03T02:22:58.790Z,17.27
2018-09-03T02:25:27.591Z,17.27
2018-09-03T02:27:56.378Z,17.29
2018-09-03T02:30:25.271Z,17.28
2018-09-03T02:32:54.529Z,17.27
2018-09-03T02:35:23.252Z,17.25
2018-09-03T02:37:52.239Z,17.24
2018-09-03T02:40:21.635Z,17.24
2018-09-03T02:42:50.999Z,17.23
2018-09-03T02:45:19.764Z,17.21
2018-09-03T02:47:48.594Z,17.21
2018-09-03T02:50:17.881Z,17.24
2018-09-03T02:52:46.611Z,17.26
2018-09-03T02:55:15.431Z,17.29
2018-09-03T02:57:44.928Z,17.31
2018-09-03T03:00:13.708Z,17.33
2018-09-03T03:02:42.441Z,17.35
2018-09-03T03:05:11.423Z,17.36
2018-09-03T03:07:40.388Z,17.39
2018-09-03T03:10:09.130Z,17.43
2018-09-03T03:12:38.130Z,17.46
2018-09-03T03:15:06.888Z,17.48
2018-09-03T03:17:35.691Z,17.49
2018-09-03T03:20:04.429Z,17.49
2018-09-03T03:22:33.817Z,17.51
2018-09-03T03:25:02.958Z,17.49
2018-09-03T03:27:31.752Z,17.48
2018-09-03T03:30:00.767Z,17.49
2018-09-03T03:32:29.794Z,17.49
2018-09-03T03:34:58.937Z,17.50
2018-09-03T03:37:28.270Z,17.52
2018-09-03T03:39:57.045Z,17.53
2018-09-03T03:42:26.236Z,17.53
2018-09-03T03:44:55.279Z,17.52
2018-09-03T03:47:24.021Z,17.52
2018-09-03T03:49:53.112Z,17.54
2018-09-03T03:52:22.241Z,17.55
2018-09-03T03:54:51.427Z,17.57
2018-09-03T03:57:20.835Z,17.57
2018-09-03T03:59:50.131Z,17.58
2018-09-03T04:02:19.160Z,17.59
2018-09-03T04:04:48.234Z,17.61
2018-09-03T04:07:17.395Z,17.58
2018-09-03T04:09:46.182Z,17.59
2018-09-03T04:12:14.966Z,17.59
2018-09-03T04:14:43.819Z,17.59
2018-09-03T04:17:12.861Z,17.59
2018-09-03T04:19:41.732Z,17.58
2018-09-03T04:22:10.498Z,17.59
2018-09-03T04:24:39.579Z,17.60
2018-09-03T04:27:08.904Z,17.61
2018-09-03T04:29:37.644Z,17.61
2018-09-03T04:32:06.718Z,17.62
2018-09-03T04:34:35.472Z,17.64
2018-09-03T04:37:04.330Z,17.66
2018-09-03T04:39:33.436Z,17.66
2018-09-03T04:42:02.576Z,17.65
2018-09-03T04:44:32.064Z,17.66
2018-09-03T04:47:01.126Z,17.67
2018-09-03T04:49:30.627Z,17.66
2018-09-03T04:51:59.455Z,17.66
2018-09-03T04:54:28.328Z,17.63
2018-09-03T04:56:57.397Z,17.64
2018-09-03T04:59:26.162Z,17.65
2018-09-03T05:01:54.922Z,17.66
2018-09-03T05:04:23.642Z,17.67
2018-09-03T05:06:52.440Z,17.69
2018-09-03T05:09:21.476Z,17.68
2018-09-03T05:11:51.047Z,17.69
2018-09-03T05:14:20.131Z,17.69
2018-09-03T05:16:49.149Z,17.70
2018-09-03T05:19:18.294Z,17.71
2018-09-03T05:21:47.039Z,17.73
2018-09-03T05:24:16.446Z,17.75
2018-09-03T05:26:45.622Z,17.78
2018-09-03T05:29:14.544Z,17.75
2018-09-03T05:31:43.725Z,17.75
2018-09-03T05:34:12.510Z,17.76
2018-09-03T05:36:41.518Z,17.76
2018-09-03T05:39:12.007Z,17.77
2018-09-03T05:41:42.520Z,17.77
2018-09-03T05:44:11.558Z,17.78
2018-09-03T05:46:40.771Z,17.79
2018-09-03T05:49:09.961Z,17.83
2018-09-03T05:51:39.052Z,17.85
2018-09-03T05:54:08.143Z,17.86
2018-09-03T05:56:36.967Z,17.87
2018-09-03T05:59:06.125Z,17.92
2018-09-03T06:01:34.933Z,17.87
2018-09-03T06:04:04.436Z,17.87
2018-09-03T06:06:33.184Z,17.90
2018-09-03T06:09:10.456Z,17.94
2018-09-03T06:11:40.038Z,17.97
2018-09-03T06:14:09.274Z,18.00
2018-09-03T06:16:38.373Z,18.05
2018-09-03T06:19:07.124Z,18.08
2018-09-03T06:21:36.100Z,18.17
2018-09-03T06:24:04.850Z,18.24
2018-09-03T06:26:33.615Z,18.31
2018-09-03T06:29:02.444Z,18.35
2018-09-03T06:31:31.212Z,18.42
2018-09-03T06:33:59.971Z,18.47
2018-09-03T06:36:28.793Z,18.53
2018-09-03T06:38:57.750Z,18.63
2018-09-03T06:41:26.526Z,18.72
2018-09-03T06:43:55.574Z,18.78
2018-09-03T06:46:24.558Z,18.83
2018-09-03T06:48:53.741Z,18.87
2018-09-03T06:51:22.826Z,18.87
2018-09-03T06:53:52.547Z,18.87
2018-09-03T06:56:21.278Z,18.85
2018-09-03T06:58:50.407Z,18.85
2018-09-03T07:01:19.131Z,18.88
2018-09-03T07:03:48.161Z,18.89
2018-09-03T07:06:17.181Z,18.91
2018-09-03T07:08:46.248Z,18.95
2018-09-03T07:11:14.969Z,18.90
2018-09-03T07:13:43.756Z,18.92
2018-09-03T07:16:12.834Z,18.92
2018-09-03T07:18:41.595Z,18.94
2018-09-03T07:21:10.768Z,18.99
2018-09-03T07:23:39.769Z,19.00
2018-09-03T07:26:08.783Z,18.99
2018-09-03T07:28:37.874Z,19.00
2018-09-03T07:31:06.586Z,19.04
2018-09-03T07:33:35.320Z,19.12
2018-09-03T07:36:04.376Z,19.18
2018-09-03T07:38:33.151Z,19.23
2018-09-03T07:41:02.116Z,19.31
2018-09-03T07:43:31.107Z,19.36
2018-09-03T07:46:00.399Z,19.40
2018-09-03T07:48:29.146Z,19.39
2018-09-03T07:50:57.973Z,19.41
2018-09-03T07:53:26.911Z,19.44
2018-09-03T07:55:55.690Z,19.46
2018-09-03T07:58:24.455Z,19.46
2018-09-03T08:00:53.423Z,19.47
2018-09-03T08:03:22.181Z,19.51
2018-09-03T08:05:51.924Z,19.55
2018-09-03T08:08:23.839Z,19.60
2018-09-03T08:10:52.686Z,19.63
2018-09-03T08:13:26.616Z,19.67
2018-09-03T08:16:01.525Z,19.77
2018-09-03T08:18:30.626Z,19.82
2018-09-03T08:20:59.425Z,19.87
2018-09-03T08:23:28.389Z,19.89
2018-09-03T08:25:57.793Z,19.95
2018-09-03T08:28:27.059Z,19.98
2018-09-03T08:30:56.171Z,20.05
2018-09-03T08:33:24.886Z,20.12
2018-09-03T08:35:53.642Z,20.19
2018-09-03T08:38:23.034Z,20.28
2018-09-03T08:40:52.078Z,20.34
2018-09-03T08:43:21.551Z,20.44
2018-09-03T08:45:50.323Z,20.54
2018-09-03T08:48:19.074Z,20.67
2018-09-03T08:50:47.775Z,20.90
2018-09-03T08:53:17.284Z,21.11
2018-09-03T08:55:46.117Z,21.32
2018-09-03T08:58:15.177Z,21.59
2018-09-03T09:00:44.153Z,21.71
2018-09-03T09:03:18.483Z,21.83
2018-09-03T09:05:47.699Z,21.95
2018-09-03T09:08:16.397Z,22.08
2018-09-03T09:10:45.155Z,22.18
2018-09-03T09:13:13.937Z,22.28
2018-09-03T09:15:42.916Z,22.35
2018-09-03T09:18:12.174Z,22.45
2018-09-03T09:20:40.951Z,22.60
2018-09-03T09:23:09.691Z,22.76
2018-09-03T09:25:38.784Z,22.97
2018-09-03T09:28:07.836Z,23.10
2018-09-03T09:30:36.917Z,23.29
2018-09-03T09:33:05.991Z,23.44
2018-09-03T09:35:34.850Z,23.57
2018-09-03T09:38:03.875Z,23.68
2018-09-03T09:40:33.052Z,23.82
2018-09-03T09:43:01.894Z,23.89
2018-09-03T09:45:30.857Z,23.94
2018-09-03T09:47:59.594Z,24.05
2018-09-03T09:50:28.337Z,24.16
2018-09-03T09:52:57.149Z,24.24
2018-09-03T09:55:26.352Z,24.25
2018-09-03T09:57:55.079Z,24.32
2018-09-03T10:00:29.057Z,24.31
2018-09-03T10:02:58.425Z,24.45
2018-09-03T10:05:27.761Z,24.64
2018-09-03T10:07:56.575Z,24.81
2018-09-03T10:10:25.816Z,24.84
2018-09-03T10:12:54.615Z,24.98
2018-09-03T10:15:23.497Z,24.91
2018-09-03T10:17:52.496Z,24.80
2018-09-03T10:20:21.280Z,24.78
2018-09-03T10:22:50.361Z,24.74
2018-09-03T10:25:19.391Z,24.92
2018-09-03T10:27:48.201Z,25.10
2018-09-03T10:30:16.937Z,25.20
2018-09-03T10:32:46.443Z,25.32
2018-09-03T10:35:15.168Z,25.37
2018-09-03T10:37:43.857Z,25.39
2018-09-03T10:40:12.947Z,25.41
2018-09-03T10:42:42.113Z,25.51
2018-09-03T10:45:10.870Z,25.76
2018-09-03T10:47:39.939Z,26.06
2018-09-03T10:50:08.914Z,26.18
2018-09-03T10:52:38.003Z,26.17
2018-09-03T10:55:07.466Z,26.17
2018-09-03T10:57:36.609Z,25.91
2018-09-03T11:00:06.020Z,25.74
2018-09-03T11:02:35.045Z,25.67
2018-09-03T11:05:04.106Z,25.67
2018-09-03T11:07:32.892Z,25.62
2018-09-03T11:10:01.681Z,25.58
2018-09-03T11:12:30.735Z,25.71
2018-09-03T11:14:59.950Z,25.61
2018-09-03T11:17:28.720Z,25.59
2018-09-03T11:20:00.105Z,25.68
2018-09-03T11:22:29.478Z,25.70
2018-09-03T11:24:59.443Z,25.54
2018-09-03T11:27:28.978Z,25.45
2018-09-03T11:29:58.237Z,25.56
2018-09-03T11:32:27.548Z,25.64
2018-09-03T11:34:56.375Z,25.67
2018-09-03T11:37:25.489Z,25.74
2018-09-03T11:39:55.242Z,25.72
2018-09-03T11:42:24.138Z,25.51
2018-09-03T11:44:52.847Z,25.54
2018-09-03T11:47:21.583Z,25.62
2018-09-03T11:49:50.646Z,25.97
2018-09-03T11:52:19.371Z,26.24
2018-09-03T11:54:48.124Z,26.60
2018-09-03T11:57:17.489Z,26.86
2018-09-03T11:59:46.578Z,27.10
2018-09-03T12:02:15.283Z,27.36
2018-09-03T12:04:44.082Z,27.57
2018-09-03T12:07:13.054Z,27.71
2018-09-03T12:09:42.471Z,27.95
2018-09-03T12:12:11.258Z,28.08
2018-09-03T12:14:42.431Z,28.18
2018-09-03T12:17:11.264Z,28.10
2018-09-03T12:19:40.822Z,28.33
2018-09-03T12:22:10.094Z,28.46
2018-09-03T12:24:38.835Z,28.54
2018-09-03T12:27:07.764Z,28.80
2018-09-03T12:29:36.821Z,29.07
2018-09-03T12:32:05.578Z,29.30
2018-09-03T12:34:34.587Z,29.40
2018-09-03T12:37:03.482Z,29.58
2018-09-03T12:39:32.172Z,29.71
2018-09-03T12:42:01.162Z,29.83
2018-09-03T12:44:30.897Z,29.91
2018-09-03T12:47:00.314Z,29.99
2018-09-03T12:49:29.094Z,29.95
2018-09-03T12:51:58.231Z,30.09
2018-09-03T12:54:27.344Z,30.31
2018-09-03T12:56:56.108Z,30.55
2018-09-03T12:59:24.899Z,30.79
2018-09-03T13:01:53.691Z,30.77
2018-09-03T13:04:22.440Z,30.94
2018-09-03T13:06:58.094Z,31.03
2018-09-03T13:09:27.073Z,30.89
2018-09-03T13:11:55.848Z,30.82
2018-09-03T13:14:24.588Z,30.67
2018-09-03T13:16:53.598Z,30.72
2018-09-03T13:19:22.921Z,30.92
2018-09-03T13:21:52.466Z,31.00
2018-09-03T13:24:21.556Z,31.12
2018-09-03T13:26:50.335Z,31.13
2018-09-03T13:29:19.219Z,31.02
2018-09-03T13:31:48.035Z,30.71
2018-09-03T13:34:17.134Z,30.46
2018-09-03T13:36:45.902Z,30.53
2018-09-03T13:39:15.766Z,30.69
2018-09-03T13:41:44.549Z,30.76
2018-09-03T13:44:13.273Z,30.85
2018-09-03T13:46:42.075Z,30.84
2018-09-03T13:49:10.819Z,30.60
2018-09-03T13:51:40.030Z,30.44
2018-09-03T13:54:08.730Z,30.40
2018-09-03T13:56:37.554Z,30.17
2018-09-03T13:59:06.305Z,30.13
2018-09-03T14:01:35.103Z,29.82
2018-09-03T14:04:04.186Z,29.54
2018-09-03T14:06:33.789Z,29.61
2018-09-03T14:09:03.235Z,29.68
2018-09-03T14:11:32.006Z,29.89
2018-09-03T14:14:00.787Z,30.19
2018-09-03T14:16:30.259Z,30.46
2018-09-03T14:18:59.070Z,30.55
2018-09-03T14:21:28.535Z,30.74
2018-09-03T14:23:57.475Z,31.01
2018-09-03T14:26:26.666Z,31.07
2018-09-03T14:28:55.418Z,31.00
2018-09-03T14:31:24.811Z,30.99
2018-09-03T14:33:53.838Z,30.75
2018-09-03T14:36:23.215Z,30.60
2018-09-03T14:38:55.100Z,30.49
2018-09-03T14:41:23.824Z,30.38
2018-09-03T14:43:52.816Z,30.30
2018-09-03T14:46:22.259Z,30.49
2018-09-03T14:48:51.035Z,30.49
2018-09-03T14:51:20.130Z,30.28
2018-09-03T14:53:49.083Z,30.17
2018-09-03T14:56:18.136Z,30.03
2018-09-03T14:58:46.862Z,30.13
2018-09-03T15:01:16.063Z,30.27
2018-09-03T15:03:44.840Z,30.27
2018-09-03T15:06:13.583Z,30.23
2018-09-03T15:08:42.630Z,30.30
2018-09-03T15:11:11.339Z,30.35
2018-09-03T15:13:40.099Z,30.26
2018-09-03T15:16:08.866Z,30.15
2018-09-03T15:18:37.985Z,29.89
2018-09-03T15:21:06.715Z,29.73
2018-09-03T15:23:35.450Z,29.55
2018-09-03T15:26:04.576Z,29.51
2018-09-03T15:28:33.278Z,29.56
2018-09-03T15:31:02.422Z,29.70
2018-09-03T15:33:31.238Z,29.76
2018-09-03T15:35:59.993Z,29.71
2018-09-03T15:38:28.765Z,29.53
2018-09-03T15:40:58.164Z,29.43
2018-09-03T15:43:27.567Z,29.30
2018-09-03T15:45:56.246Z,29.22
2018-09-03T15:48:25.630Z,29.11
2018-09-03T15:50:54.698Z,29.05
2018-09-03T15:53:24.295Z,29.00
2018-09-03T15:55:53.102Z,28.95
2018-09-03T15:58:21.832Z,28.86
2018-09-03T16:00:50.973Z,28.79
2018-09-03T16:03:19.972Z,28.73
2018-09-03T16:05:49.022Z,28.73
2018-09-03T16:08:18.105Z,28.83
2018-09-03T16:10:46.839Z,28.81
2018-09-03T16:13:15.897Z,28.71
2018-09-03T16:15:44.993Z,28.61
2018-09-03T16:18:14.317Z,28.49
2018-09-03T16:20:43.416Z,28.42
2018-09-03T16:23:12.152Z,28.25
2018-09-03T16:25:40.988Z,28.03
2018-09-03T16:28:10.036Z,27.97
2018-09-03T16:30:39.812Z,27.97
2018-09-03T16:33:08.634Z,27.99
2018-09-03T16:35:37.355Z,27.96
2018-09-03T16:38:06.816Z,27.94
2018-09-03T16:40:35.893Z,27.95
2018-09-03T16:43:04.914Z,27.95
2018-09-03T16:45:33.696Z,27.86
2018-09-03T16:48:02.910Z,27.86
2018-09-03T16:50:31.658Z,27.85
2018-09-03T16:53:00.408Z,27.86
2018-09-03T16:55:29.142Z,27.91
2018-09-03T16:57:58.503Z,27.97
2018-09-03T17:00:27.785Z,28.02
2018-09-03T17:02:56.494Z,28.04
2018-09-03T17:05:25.499Z,28.00
2018-09-03T17:07:54.330Z,27.97
2018-09-03T17:10:23.542Z,27.96
2018-09-03T17:12:52.342Z,27.91
2018-09-03T17:15:21.323Z,27.87
2018-09-03T17:17:50.627Z,27.88
2018-09-03T17:20:19.550Z,27.90
2018-09-03T17:22:48.259Z,27.87
2018-09-03T17:25:16.987Z,27.81
2018-09-03T17:27:45.808Z,27.77
2018-09-03T17:30:15.089Z,27.71
2018-09-03T17:32:44.173Z,27.67
2018-09-03T17:35:13.510Z,27.64
2018-09-03T17:37:42.304Z,27.61
2018-09-03T17:40:11.334Z,27.59
2018-09-03T17:42:40.140Z,27.53
2018-09-03T17:45:10.102Z,27.49
2018-09-03T17:47:39.847Z,27.44
2018-09-03T17:50:09.389Z,27.40
2018-09-03T17:52:38.536Z,27.36
2018-09-03T17:55:08.134Z,27.30
2018-09-03T17:57:37.324Z,27.26
2018-09-03T18:00:06.697Z,27.21
2018-09-03T18:02:36.128Z,27.13
2018-09-03T18:05:05.240Z,27.07
2018-09-03T18:07:34.529Z,27.01
2018-09-03T18:10:03.919Z,26.95
2018-09-03T18:12:32.947Z,26.89
2018-09-03T18:15:01.988Z,26.83
2018-09-03T18:17:30.774Z,26.76
2018-09-03T18:19:59.903Z,26.69
2018-09-03T18:22:28.627Z,26.59
2018-09-03T18:24:57.362Z,26.51
2018-09-03T18:27:26.917Z,26.43
2018-09-03T18:29:55.702Z,26.35
2018-09-03T18:32:24.469Z,26.27
2018-09-03T18:34:53.189Z,26.21
2018-09-03T18:37:22.336Z,26.13
2018-09-03T18:39:51.072Z,26.06
2018-09-03T18:42:20.041Z,25.97
2018-09-03T18:44:49.387Z,25.87
2018-09-03T18:47:18.470Z,25.75
2018-09-03T18:49:47.675Z,25.65
2018-09-03T18:52:16.523Z,25.56
2018-09-03T18:54:45.508Z,25.47
2018-09-03T18:57:14.239Z,25.41
2018-09-03T18:59:43.590Z,25.32
2018-09-03T19:02:12.366Z,25.21
2018-09-03T19:04:41.115Z,25.11
2018-09-03T19:07:10.129Z,25.01
2018-09-03T19:09:38.904Z,24.91
2018-09-03T19:12:08.298Z,24.79
2018-09-03T19:14:37.017Z,24.68
2018-09-03T19:17:05.928Z,24.53
2018-09-03T19:19:34.967Z,24.42
2018-09-03T19:22:03.853Z,24.34
2018-09-03T19:24:32.942Z,24.26
2018-09-03T19:27:01.790Z,24.17
2018-09-03T19:29:30.584Z,24.09
2018-09-03T19:31:59.595Z,24.02
2018-09-03T19:34:29.243Z,23.97
2018-09-03T19:36:57.983Z,23.89
2018-09-03T19:39:27.186Z,23.83
2018-09-03T19:41:55.938Z,23.77
2018-09-03T19:44:25.035Z,23.73
2018-09-03T19:46:54.366Z,23.68
2018-09-03T19:49:23.111Z,23.63
2018-09-03T19:51:51.903Z,23.57
2018-09-03T19:54:20.681Z,23.51
2018-09-03T19:56:50.170Z,23.48
2018-09-03T19:59:18.967Z,23.45
2018-09-03T20:01:47.703Z,23.39
2018-09-03T20:04:16.468Z,23.31
2018-09-03T20:06:45.837Z,23.28
2018-09-03T20:09:14.665Z,23.24
2018-09-03T20:11:44.361Z,23.17
2018-09-03T20:14:16.284Z,23.12
2018-09-03T20:16:45.197Z,23.08
2018-09-03T20:19:13.917Z,23.04
2018-09-03T20:21:42.968Z,22.99
2018-09-03T20:24:12.042Z,23.01
2018-09-03T20:26:41.150Z,22.96
2018-09-03T20:29:10.369Z,22.91
2018-09-03T20:31:39.393Z,22.93
2018-09-03T20:34:08.164Z,22.86
2018-09-03T20:36:37.628Z,22.81
2018-09-03T20:39:07.293Z,22.80
2018-09-03T20:41:36.047Z,22.75
2018-09-03T20:44:04.900Z,22.68
2018-09-03T20:46:33.736Z,22.66
2018-09-03T20:49:02.734Z,22.65
2018-09-03T20:51:31.817Z,22.62
2018-09-03T20:54:01.107Z,22.59
2018-09-03T20:56:29.907Z,22.55
2018-09-03T20:58:58.762Z,22.53
2018-09-03T21:01:28.024Z,22.45
2018-09-03T21:03:57.224Z,22.44
2018-09-03T21:06:25.976Z,22.38
2018-09-03T21:08:54.763Z,22.34
2018-09-03T21:11:29.825Z,22.29
2018-09-03T21:13:58.953Z,22.26
2018-09-03T21:16:27.738Z,22.25
2018-09-03T21:18:56.530Z,22.21
2018-09-03T21:21:25.857Z,22.20
2018-09-03T21:23:54.615Z,22.22
2018-09-03T21:26:23.415Z,22.25
2018-09-03T21:28:52.619Z,22.20
2018-09-03T21:31:21.797Z,22.20
2018-09-03T21:33:51.478Z,22.18
2018-09-03T21:36:20.261Z,22.15
2018-09-03T21:38:55.518Z,22.11
2018-09-03T21:41:24.945Z,22.12
2018-09-03T21:43:54.204Z,22.12
2018-09-03T21:46:23.417Z,22.13
2018-09-03T21:48:52.172Z,22.12
2018-09-03T21:51:21.002Z,22.07
2018-09-03T21:53:50.242Z,22.05
2018-09-03T21:56:18.999Z,22.06
2018-09-03T21:58:48.045Z,22.04
2018-09-03T22:01:17.049Z,22.05
2018-09-03T22:03:46.387Z,22.04
2018-09-03T22:06:15.182Z,22.05
2018-09-03T22:08:44.358Z,22.05
2018-09-03T22:11:13.090Z,22.05
2018-09-03T22:13:41.886Z,22.03
2018-09-03T22:16:10.661Z,22.04
2018-09-03T22:18:40.400Z,22.02
2018-09-03T22:21:09.582Z,21.99
2018-09-03T22:23:38.783Z,21.98
2018-09-03T22:26:08.280Z,21.97
2018-09-03T22:28:37.925Z,21.95
2018-09-03T22:31:07.342Z,21.96
2018-09-03T22:33:36.110Z,21.96
2018-09-03T22:36:04.974Z,21.96
2018-09-03T22:38:40.348Z,21.95
2018-09-03T22:41:09.147Z,21.95
2018-09-03T22:43:38.831Z,21.95
2018-09-03T22:46:08.877Z,21.94
2018-09-03T22:48:37.630Z,21.91
2018-09-03T22:51:06.595Z,21.89
2018-09-03T22:53:35.418Z,21.87
2018-09-03T22:56:04.155Z,21.86
2018-09-03T22:58:32.871Z,21.85
2018-09-03T23:01:02.710Z,21.82
2018-09-03T23:03:32.728Z,21.81
2018-09-03T23:06:02.369Z,21.78
2018-09-03T23:08:32.221Z,21.75
2018-09-03T23:11:02.020Z,21.73
2018-09-03T23:13:32.467Z,21.74
2018-09-03T23:16:02.799Z,21.73
2018-09-03T23:18:31.924Z,21.72
2018-09-03T23:21:00.706Z,21.71
2018-09-03T23:23:29.858Z,21.70
2018-09-03T23:25:58.991Z,21.68
2018-09-03T23:28:28.325Z,21.64
2018-09-03T23:30:57.959Z,21.63
2018-09-03T23:33:26.742Z,21.59
2018-09-03T23:35:55.588Z,21.56
2018-09-03T23:38:24.326Z,21.51
2018-09-03T23:40:53.081Z,21.49
2018-09-03T23:43:22.111Z,21.46
2018-09-03T23:45:51.137Z,21.44
2018-09-03T23:48:20.460Z,21.43
2018-09-03T23:50:49.589Z,21.39
2018-09-03T23:53:19.035Z,21.35
2018-09-03T23:55:48.142Z,21.32
2018-09-03T23:58:17.198Z,21.27
